sensor_id;sensor_type;location;lat;lon;timestamp;pressure;altitude;pressure_sealevel;temperature;humidity
40155;BME280;25875;48.202;16.334;2024-02-26T00:00:07;97887.63;;;7.14;61.40
40155;BME280;25875;48.202;16.334;2024-02-26T00:02:35;97858.72;;;6.86;61.35
40155;BME280;25875;48.202;16.334;2024-02-26T00:05:06;97824.69;;;6.68;61.25
40155;BME280;25875;48.202;16.334;2024-02-26T00:07:34;97882.34;;;7.14;61.35
40155;BME280;25875;48.202;16.334;2024-02-26T00:10:00;97878.31;;;7.09;61.70
40155;BME280;25875;48.202;16.334;2024-02-26T00:12:27;97879.91;;;7.11;61.62
40155;BME280;25875;48.202;16.334;2024-02-26T00:14:53;97796.78;;;6.66;61.73
40155;BME280;25875;48.202;16.334;2024-02-26T00:17:23;97881.06;;;7.07;61.80
40155;BME280;25875;48.202;16.334;2024-02-26T00:19:49;97847.59;;;6.95;61.72
40155;BME280;25875;48.202;16.334;2024-02-26T00:22:18;97868.53;;;7.11;61.44
40155;BME280;25875;48.202;16.334;2024-02-26T00:24:44;97873.16;;;7.07;61.60
40155;BME280;25875;48.202;16.334;2024-02-26T00:27:11;97867.81;;;6.94;62.34
40155;BME280;25875;48.202;16.334;2024-02-26T00:29:38;97873.19;;;6.79;63.10
40155;BME280;25875;48.202;16.334;2024-02-26T00:32:05;97870.19;;;6.85;62.88
40155;BME280;25875;48.202;16.334;2024-02-26T00:34:31;97834.41;;;6.54;62.24
40155;BME280;25875;48.202;16.334;2024-02-26T00:36:58;97870.66;;;6.91;62.65
40155;BME280;25875;48.202;16.334;2024-02-26T00:39:26;97828.81;;;6.72;62.68
40155;BME280;25875;48.202;16.334;2024-02-26T00:41:53;97866.81;;;6.83;63.07
40155;BME280;25875;48.202;16.334;2024-02-26T00:44:19;97866.81;;;6.83;63.01
40155;BME280;25875;48.202;16.334;2024-02-26T00:46:46;97864.09;;;6.84;63.09
40155;BME280;25875;48.202;16.334;2024-02-26T00:49:12;97856.19;;;6.84;63.13
40155;BME280;25875;48.202;16.334;2024-02-26T00:51:39;97854.00;;;6.77;63.40
40155;BME280;25875;48.202;16.334;2024-02-26T00:54:06;97854.75;;;6.79;63.50
40155;BME280;25875;48.202;16.334;2024-02-26T00:56:34;97854.75;;;6.79;63.38
40155;BME280;25875;48.202;16.334;2024-02-26T00:59:00;97852.22;;;6.77;63.37
40155;BME280;25875;48.202;16.334;2024-02-26T01:01:27;97841.97;;;6.87;62.81
40155;BME280;25875;48.202;16.334;2024-02-26T01:03:54;97846.22;;;6.75;63.64
40155;BME280;25875;48.202;16.334;2024-02-26T01:06:20;97828.09;;;6.56;64.20
40155;BME280;25875;48.202;16.334;2024-02-26T01:08:48;97834.97;;;6.59;64.75
40155;BME280;25875;48.202;16.334;2024-02-26T01:11:14;97835.91;;;6.58;64.54
40155;BME280;25875;48.202;16.334;2024-02-26T01:13:42;97834.88;;;6.60;64.81
40155;BME280;25875;48.202;16.334;2024-02-26T01:16:09;97830.44;;;6.61;64.75
40155;BME280;25875;48.202;16.334;2024-02-26T01:18:36;97826.44;;;6.41;65.73
40155;BME280;25875;48.202;16.334;2024-02-26T01:21:03;97828.69;;;6.33;66.23
40155;BME280;25875;48.202;16.334;2024-02-26T01:23:32;97820.91;;;6.31;66.34
40155;BME280;25875;48.202;16.334;2024-02-26T01:25:58;97819.19;;;6.45;65.61
40155;BME280;25875;48.202;16.334;2024-02-26T01:28:25;97812.53;;;6.39;65.93
40155;BME280;25875;48.202;16.334;2024-02-26T01:30:53;97746.06;;;5.94;66.52
40155;BME280;25875;48.202;16.334;2024-02-26T01:33:20;97813.47;;;6.24;66.93
40155;BME280;25875;48.202;16.334;2024-02-26T01:35:46;97805.59;;;6.24;66.73
40155;BME280;25875;48.202;16.334;2024-02-26T01:38:13;97789.59;;;6.27;66.84
40155;BME280;25875;48.202;16.334;2024-02-26T01:40:40;97791.78;;;6.20;67.16
40155;BME280;25875;48.202;16.334;2024-02-26T01:43:06;97804.63;;;6.39;65.85
40155;BME280;25875;48.202;16.334;2024-02-26T01:45:33;97799.16;;;6.42;65.54
40155;BME280;25875;48.202;16.334;2024-02-26T01:48:01;97791.09;;;6.45;65.66
40155;BME280;25875;48.202;16.334;2024-02-26T01:50:28;97787.16;;;6.24;67.00
40155;BME280;25875;48.202;16.334;2024-02-26T01:52:55;97789.72;;;6.11;67.79
40155;BME280;25875;48.202;16.334;2024-02-26T01:55:24;97793.19;;;5.97;68.57
40155;BME280;25875;48.202;16.334;2024-02-26T01:57:52;97797.13;;;6.04;68.28
40155;BME280;25875;48.202;16.334;2024-02-26T02:00:21;97661.88;;;5.39;67.66
40155;BME280;25875;48.202;16.334;2024-02-26T02:02:48;97796.19;;;6.05;68.21
40155;BME280;25875;48.202;16.334;2024-02-26T02:05:17;97797.81;;;5.94;69.24
40155;BME280;25875;48.202;16.334;2024-02-26T02:07:44;97796.47;;;5.87;69.62
40155;BME280;25875;48.202;16.334;2024-02-26T02:10:12;97802.78;;;5.84;69.85
40155;BME280;25875;48.202;16.334;2024-02-26T02:12:39;97794.31;;;5.79;69.85
40155;BME280;25875;48.202;16.334;2024-02-26T02:15:07;97771.97;;;5.72;69.78
40155;BME280;25875;48.202;16.334;2024-02-26T02:17:34;97795.16;;;5.94;69.10
40155;BME280;25875;48.202;16.334;2024-02-26T02:20:00;97758.06;;;5.84;68.07
40155;BME280;25875;48.202;16.334;2024-02-26T02:22:30;97793.94;;;5.99;68.62
40155;BME280;25875;48.202;16.334;2024-02-26T02:24:57;97795.16;;;6.08;67.73
40155;BME280;25875;48.202;16.334;2024-02-26T02:27:24;97788.59;;;6.01;68.23
40155;BME280;25875;48.202;16.334;2024-02-26T02:29:51;97785.13;;;5.86;69.25
40155;BME280;25875;48.202;16.334;2024-02-26T02:32:18;97771.78;;;5.89;68.68
40155;BME280;25875;48.202;16.334;2024-02-26T02:34:45;97785.03;;;6.02;68.10
40155;BME280;25875;48.202;16.334;2024-02-26T02:37:13;97774.22;;;6.06;67.80
40155;BME280;25875;48.202;16.334;2024-02-26T02:39:41;97775.81;;;6.09;67.46
40155;BME280;25875;48.202;16.334;2024-02-26T02:42:08;97768.88;;;6.08;67.45
40155;BME280;25875;48.202;16.334;2024-02-26T02:44:35;97765.19;;;6.10;67.31
40155;BME280;25875;48.202;16.334;2024-02-26T02:47:02;97760.69;;;6.13;67.09
40155;BME280;25875;48.202;16.334;2024-02-26T02:49:28;97765.09;;;6.12;67.22
40155;BME280;25875;48.202;16.334;2024-02-26T02:51:55;97729.16;;;5.84;67.22
40155;BME280;25875;48.202;16.334;2024-02-26T02:54:22;97757.88;;;6.01;67.12
40155;BME280;25875;48.202;16.334;2024-02-26T02:56:50;97755.16;;;6.03;66.89
40155;BME280;25875;48.202;16.334;2024-02-26T02:59:17;97750.38;;;5.95;66.94
40155;BME280;25875;48.202;16.334;2024-02-26T03:01:44;97750.09;;;5.86;67.15
40155;BME280;25875;48.202;16.334;2024-02-26T03:04:11;97749.25;;;5.85;67.39
40155;BME280;25875;48.202;16.334;2024-02-26T03:06:37;97755.16;;;5.89;67.00
40155;BME280;25875;48.202;16.334;2024-02-26T03:09:04;97748.78;;;5.93;66.88
40155;BME280;25875;48.202;16.334;2024-02-26T03:11:31;97750.56;;;5.92;66.72
40155;BME280;25875;48.202;16.334;2024-02-26T03:13:59;97746.53;;;5.87;66.95
40155;BME280;25875;48.202;16.334;2024-02-26T03:16:25;97742.31;;;5.84;67.04
40155;BME280;25875;48.202;16.334;2024-02-26T03:18:53;97739.28;;;5.76;67.15
40155;BME280;25875;48.202;16.334;2024-02-26T03:21:19;97742.59;;;5.80;67.12
40155;BME280;25875;48.202;16.334;2024-02-26T03:23:46;97712.53;;;5.55;67.48
40155;BME280;25875;48.202;16.334;2024-02-26T03:26:13;97746.63;;;5.71;67.41
40155;BME280;25875;48.202;16.334;2024-02-26T03:28:40;97738.81;;;5.69;67.54
40155;BME280;25875;48.202;16.334;2024-02-26T03:31:08;97748.41;;;5.70;67.58
40155;BME280;25875;48.202;16.334;2024-02-26T03:33:35;97751.31;;;5.66;67.56
40155;BME280;25875;48.202;16.334;2024-02-26T03:36:03;97747.28;;;5.60;68.03
40155;BME280;25875;48.202;16.334;2024-02-26T03:38:29;97748.56;;;5.53;68.38
40155;BME280;25875;48.202;16.334;2024-02-26T03:40:56;97739.84;;;5.53;68.42
40155;BME280;25875;48.202;16.334;2024-02-26T03:43:23;97740.50;;;5.56;67.98
40155;BME280;25875;48.202;16.334;2024-02-26T03:45:50;97320.06;;;3.03;68.18
40155;BME280;25875;48.202;16.334;2024-02-26T03:48:17;97734.22;;;5.59;68.03
40155;BME280;25875;48.202;16.334;2024-02-26T03:50:44;97734.22;;;5.59;67.78
40155;BME280;25875;48.202;16.334;2024-02-26T03:53:11;97745.50;;;5.61;67.80
40155;BME280;25875;48.202;16.334;2024-02-26T03:55:38;97712.16;;;5.47;67.37
40155;BME280;25875;48.202;16.334;2024-02-26T03:58:07;97704.34;;;5.31;68.12
40155;BME280;25875;48.202;16.334;2024-02-26T04:00:33;97713.84;;;5.34;68.21
40155;BME280;25875;48.202;16.334;2024-02-26T04:03:00;97731.03;;;5.54;67.96
40155;BME280;25875;48.202;16.334;2024-02-26T04:05:28;97735.44;;;5.53;68.07
40155;BME280;25875;48.202;16.334;2024-02-26T04:07:55;97730.38;;;5.50;68.20
40155;BME280;25875;48.202;16.334;2024-02-26T04:10:21;97729.72;;;5.47;68.31
40155;BME280;25875;48.202;16.334;2024-02-26T04:12:48;97734.97;;;5.47;68.57
40155;BME280;25875;48.202;16.334;2024-02-26T04:15:15;97728.03;;;5.45;68.62
40155;BME280;25875;48.202;16.334;2024-02-26T04:17:42;97735.63;;;5.50;68.29
40155;BME280;25875;48.202;16.334;2024-02-26T04:20:13;97737.28;;;5.37;69.13
40155;BME280;25875;48.202;16.334;2024-02-26T04:22:42;97734.75;;;5.35;69.09
40155;BME280;25875;48.202;16.334;2024-02-26T04:25:09;97738.25;;;5.36;68.86
40155;BME280;25875;48.202;16.334;2024-02-26T04:27:36;97722.09;;;5.42;68.79
40155;BME280;25875;48.202;16.334;2024-02-26T04:30:04;97727.53;;;5.39;68.92
40155;BME280;25875;48.202;16.334;2024-02-26T04:32:31;97719.28;;;5.31;69.33
40155;BME280;25875;48.202;16.334;2024-02-26T04:34:58;97727.34;;;5.28;69.44
40155;BME280;25875;48.202;16.334;2024-02-26T04:37:25;97722.28;;;5.25;69.61
40155;BME280;25875;48.202;16.334;2024-02-26T04:39:57;97716.16;;;5.24;69.59
40155;BME280;25875;48.202;16.334;2024-02-26T04:42:24;97698.69;;;5.09;69.74
40155;BME280;25875;48.202;16.334;2024-02-26T04:44:51;97727.03;;;5.18;70.05
40155;BME280;25875;48.202;16.334;2024-02-26T04:47:17;97723.03;;;5.27;69.57
40155;BME280;25875;48.202;16.334;2024-02-26T04:49:44;97692.13;;;5.02;69.73
40155;BME280;25875;48.202;16.334;2024-02-26T04:52:13;97733.72;;;5.24;69.72
40155;BME280;25875;48.202;16.334;2024-02-26T04:54:39;97738.78;;;5.27;69.50
40155;BME280;25875;48.202;16.334;2024-02-26T04:57:08;97744.22;;;5.24;69.95
40155;BME280;25875;48.202;16.334;2024-02-26T04:59:34;97737.94;;;5.26;69.90
40155;BME280;25875;48.202;16.334;2024-02-26T05:02:01;97712.84;;;5.06;69.97
40155;BME280;25875;48.202;16.334;2024-02-26T05:04:27;97739.31;;;5.18;70.33
40155;BME280;25875;48.202;16.334;2024-02-26T05:06:54;97727.78;;;5.20;70.27
40155;BME280;25875;48.202;16.334;2024-02-26T05:09:21;97736.25;;;5.25;69.67
40155;BME280;25875;48.202;16.334;2024-02-26T05:11:48;97731.94;;;5.24;70.11
40155;BME280;25875;48.202;16.334;2024-02-26T05:14:16;97377.38;;;3.08;70.05
40155;BME280;25875;48.202;16.334;2024-02-26T05:16:43;97721.97;;;5.15;70.57
40155;BME280;25875;48.202;16.334;2024-02-26T05:19:09;97669.53;;;4.84;70.15
40155;BME280;25875;48.202;16.334;2024-02-26T05:21:36;97733.50;;;5.12;70.68
40155;BME280;25875;48.202;16.334;2024-02-26T05:24:03;97737.13;;;4.96;71.76
40155;BME280;25875;48.202;16.334;2024-02-26T05:26:30;97697.41;;;4.86;71.25
40155;BME280;25875;48.202;16.334;2024-02-26T05:28:57;97729.41;;;4.93;72.16
40155;BME280;25875;48.202;16.334;2024-02-26T05:31:26;97731.59;;;5.00;71.51
40155;BME280;25875;48.202;16.334;2024-02-26T05:33:54;97730.56;;;5.03;71.26
40155;BME280;25875;48.202;16.334;2024-02-26T05:36:21;97662.66;;;4.67;70.87
40155;BME280;25875;48.202;16.334;2024-02-26T05:38:48;97549.97;;;3.74;70.56
40155;BME280;25875;48.202;16.334;2024-02-26T05:41:15;97731.22;;;5.06;70.89
40155;BME280;25875;48.202;16.334;2024-02-26T05:43:45;97734.53;;;5.10;71.07
40155;BME280;25875;48.202;16.334;2024-02-26T05:46:12;97740.22;;;5.02;71.63
40155;BME280;25875;48.202;16.334;2024-02-26T05:48:40;97743.78;;;5.01;71.42
40155;BME280;25875;48.202;16.334;2024-02-26T05:51:06;97750.41;;;4.93;72.08
40155;BME280;25875;48.202;16.334;2024-02-26T05:53:33;97753.81;;;4.95;71.94
40155;BME280;25875;48.202;16.334;2024-02-26T05:56:00;97754.72;;;4.94;72.03
40155;BME280;25875;48.202;16.334;2024-02-26T05:58:27;97708.47;;;4.61;72.01
40155;BME280;25875;48.202;16.334;2024-02-26T06:00:53;97760.66;;;4.97;71.72
40155;BME280;25875;48.202;16.334;2024-02-26T06:03:20;97757.84;;;5.00;71.35
40155;BME280;25875;48.202;16.334;2024-02-26T06:05:48;97772.56;;;5.03;71.36
40155;BME280;25875;48.202;16.334;2024-02-26T06:08:15;97767.94;;;4.92;72.06
40155;BME280;25875;48.202;16.334;2024-02-26T06:10:42;97771.06;;;4.83;72.52
40155;BME280;25875;48.202;16.334;2024-02-26T06:13:09;97780.41;;;4.73;72.93
40155;BME280;25875;48.202;16.334;2024-02-26T06:15:35;97768.97;;;4.74;72.82
40155;BME280;25875;48.202;16.334;2024-02-26T06:18:02;97761.09;;;4.74;72.66
40155;BME280;25875;48.202;16.334;2024-02-26T06:20:29;97769.91;;;4.73;72.95
40155;BME280;25875;48.202;16.334;2024-02-26T06:22:57;97773.94;;;4.78;72.67
40155;BME280;25875;48.202;16.334;2024-02-26T06:25:23;97772.94;;;4.81;72.46
40155;BME280;25875;48.202;16.334;2024-02-26T06:27:51;97614.22;;;3.65;72.49
40155;BME280;25875;48.202;16.334;2024-02-26T06:30:17;97776.66;;;4.77;73.02
40155;BME280;25875;48.202;16.334;2024-02-26T06:32:44;97775.91;;;4.75;73.13
40155;BME280;25875;48.202;16.334;2024-02-26T06:35:10;97787.84;;;4.80;72.86
40155;BME280;25875;48.202;16.334;2024-02-26T06:37:37;97781.81;;;4.78;73.04
40155;BME280;25875;48.202;16.334;2024-02-26T06:40:08;97784.81;;;4.72;73.49
40155;BME280;25875;48.202;16.334;2024-02-26T06:42:35;97738.09;;;4.47;73.11
40155;BME280;25875;48.202;16.334;2024-02-26T06:45:02;97803.41;;;4.84;73.04
40155;BME280;25875;48.202;16.334;2024-02-26T06:47:29;97798.91;;;4.86;72.92
40155;BME280;25875;48.202;16.334;2024-02-26T06:49:56;97794.69;;;4.83;73.02
40155;BME280;25875;48.202;16.334;2024-02-26T06:52:23;97771.69;;;4.72;72.90
40155;BME280;25875;48.202;16.334;2024-02-26T06:54:50;97793.34;;;4.92;72.75
40155;BME280;25875;48.202;16.334;2024-02-26T06:57:19;97755.66;;;4.77;72.63
40155;BME280;25875;48.202;16.334;2024-02-26T06:59:46;97796.13;;;5.04;72.44
40155;BME280;25875;48.202;16.334;2024-02-26T07:02:13;97707.78;;;4.58;72.54
40155;BME280;25875;48.202;16.334;2024-02-26T07:04:41;97758.88;;;4.98;72.48
40155;BME280;25875;48.202;16.334;2024-02-26T07:07:08;97794.78;;;5.27;71.93
40155;BME280;25875;48.202;16.334;2024-02-26T07:09:34;97746.50;;;5.00;71.76
40155;BME280;25875;48.202;16.334;2024-02-26T07:12:01;97789.00;;;5.36;72.03
40155;BME280;25875;48.202;16.334;2024-02-26T07:14:29;97794.81;;;5.41;72.00
40155;BME280;25875;48.202;16.334;2024-02-26T07:16:56;97799.44;;;5.52;71.74
40155;BME280;25875;48.202;16.334;2024-02-26T07:19:23;97796.00;;;5.66;71.62
40155;BME280;25875;48.202;16.334;2024-02-26T07:21:50;97794.41;;;5.77;71.06
40155;BME280;25875;48.202;16.334;2024-02-26T07:24:16;97792.16;;;5.86;70.70
40155;BME280;25875;48.202;16.334;2024-02-26T07:26:43;97796.28;;;5.90;70.30
40155;BME280;25875;48.202;16.334;2024-02-26T07:29:10;97796.75;;;5.96;70.31
40155;BME280;25875;48.202;16.334;2024-02-26T07:31:38;97802.88;;;6.11;70.12
40155;BME280;25875;48.202;16.334;2024-02-26T07:34:04;97796.09;;;6.21;69.84
40155;BME280;25875;48.202;16.334;2024-02-26T07:36:31;97794.88;;;6.27;69.50
40155;BME280;25875;48.202;16.334;2024-02-26T07:38:58;97789.03;;;6.36;69.32
40155;BME280;25875;48.202;16.334;2024-02-26T07:41:24;97750.34;;;6.24;68.87
40155;BME280;25875;48.202;16.334;2024-02-26T07:43:51;97789.84;;;6.51;68.83
40155;BME280;25875;48.202;16.334;2024-02-26T07:46:18;97787.28;;;6.63;68.46
40155;BME280;25875;48.202;16.334;2024-02-26T07:48:46;97799.84;;;6.72;68.25
40155;BME280;25875;48.202;16.334;2024-02-26T07:51:13;97788.66;;;6.83;67.90
40155;BME280;25875;48.202;16.334;2024-02-26T07:53:40;97797.34;;;6.98;67.56
40155;BME280;25875;48.202;16.334;2024-02-26T07:56:07;97801.03;;;6.95;67.09
40155;BME280;25875;48.202;16.334;2024-02-26T07:58:33;97797.94;;;7.16;67.00
40155;BME280;25875;48.202;16.334;2024-02-26T08:01:00;97726.50;;;6.54;66.49
40155;BME280;25875;48.202;16.334;2024-02-26T08:03:27;97799.44;;;7.20;66.37
40155;BME280;25875;48.202;16.334;2024-02-26T08:05:55;97811.00;;;7.17;65.88
40155;BME280;25875;48.202;16.334;2024-02-26T08:08:21;97785.13;;;6.97;66.26
40155;BME280;25875;48.202;16.334;2024-02-26T08:10:48;97809.66;;;7.24;66.21
40155;BME280;25875;48.202;16.334;2024-02-26T08:13:15;97817.06;;;7.32;66.06
40155;BME280;25875;48.202;16.334;2024-02-26T08:15:43;97813.53;;;7.46;65.50
40155;BME280;25875;48.202;16.334;2024-02-26T08:18:09;97757.16;;;7.21;65.50
40155;BME280;25875;48.202;16.334;2024-02-26T08:20:36;97803.03;;;7.71;64.79
40155;BME280;25875;48.202;16.334;2024-02-26T08:23:05;97805.66;;;7.71;64.82
40155;BME280;25875;48.202;16.334;2024-02-26T08:25:32;97815.38;;;7.83;64.62
40155;BME280;25875;48.202;16.334;2024-02-26T08:27:58;97804.50;;;7.88;64.25
40155;BME280;25875;48.202;16.334;2024-02-26T08:30:25;97805.16;;;7.91;63.62
40155;BME280;25875;48.202;16.334;2024-02-26T08:32:52;97821.91;;;8.16;63.82
40155;BME280;25875;48.202;16.334;2024-02-26T08:35:19;97792.56;;;8.08;62.61
40155;BME280;25875;48.202;16.334;2024-02-26T08:37:45;97803.31;;;8.30;62.04
40155;BME280;25875;48.202;16.334;2024-02-26T08:40:13;97800.78;;;8.41;61.98
40155;BME280;25875;48.202;16.334;2024-02-26T08:42:40;97745.53;;;7.76;61.77
40155;BME280;25875;48.202;16.334;2024-02-26T08:45:07;97735.28;;;7.97;61.74
40155;BME280;25875;48.202;16.334;2024-02-26T08:47:34;97665.38;;;7.66;61.36
40155;BME280;25875;48.202;16.334;2024-02-26T08:50:01;97537.75;;;7.06;60.63
40155;BME280;25875;48.202;16.334;2024-02-26T08:52:27;97651.00;;;7.83;60.59
40155;BME280;25875;48.202;16.334;2024-02-26T08:54:54;97793.81;;;8.77;60.26
40155;BME280;25875;48.202;16.334;2024-02-26T08:57:25;97798.53;;;8.84;59.90
40155;BME280;25875;48.202;16.334;2024-02-26T08:59:53;97794.19;;;9.07;60.08
40155;BME280;25875;48.202;16.334;2024-02-26T09:02:20;97788.81;;;9.09;59.21
40155;BME280;25875;48.202;16.334;2024-02-26T09:04:46;97793.09;;;9.22;59.19
40155;BME280;25875;48.202;16.334;2024-02-26T09:07:13;97790.72;;;9.30;59.36
40155;BME280;25875;48.202;16.334;2024-02-26T09:09:40;97792.38;;;9.44;58.58
40155;BME280;25875;48.202;16.334;2024-02-26T09:12:07;97786.38;;;9.53;58.56
40155;BME280;25875;48.202;16.334;2024-02-26T09:14:35;97789.28;;;9.61;58.25
40155;BME280;25875;48.202;16.334;2024-02-26T09:17:02;97788.88;;;9.90;58.30
40155;BME280;25875;48.202;16.334;2024-02-26T09:19:31;97786.34;;;10.11;56.65
40155;BME280;25875;48.202;16.334;2024-02-26T09:21:57;97797.56;;;10.14;56.81
40155;BME280;25875;48.202;16.334;2024-02-26T09:24:24;97798.28;;;10.05;56.00
40155;BME280;25875;48.202;16.334;2024-02-26T09:26:51;97780.09;;;10.23;55.52
40155;BME280;25875;48.202;16.334;2024-02-26T09:29:17;97788.28;;;10.20;55.23
40155;BME280;25875;48.202;16.334;2024-02-26T09:31:45;97767.09;;;10.20;54.84
40155;BME280;25875;48.202;16.334;2024-02-26T09:34:13;97790.06;;;10.53;53.75
40155;BME280;25875;48.202;16.334;2024-02-26T09:36:40;97777.03;;;10.72;53.04
40155;BME280;25875;48.202;16.334;2024-02-26T09:39:08;97778.06;;;11.03;51.76
40155;BME280;25875;48.202;16.334;2024-02-26T09:41:37;97790.06;;;10.86;51.39
40155;BME280;25875;48.202;16.334;2024-02-26T09:44:04;97453.78;;;9.01;51.35
40155;BME280;25875;48.202;16.334;2024-02-26T09:46:31;97793.59;;;11.08;50.31
40155;BME280;25875;48.202;16.334;2024-02-26T09:48:59;97784.44;;;11.12;50.93
40155;BME280;25875;48.202;16.334;2024-02-26T09:51:26;97642.03;;;10.39;49.86
40155;BME280;25875;48.202;16.334;2024-02-26T09:53:55;97791.25;;;11.26;49.03
40155;BME280;25875;48.202;16.334;2024-02-26T09:56:23;97780.19;;;11.20;49.28
40155;BME280;25875;48.202;16.334;2024-02-26T09:58:50;97610.03;;;10.31;48.60
40155;BME280;25875;48.202;16.334;2024-02-26T10:01:20;97786.53;;;11.29;48.64
40155;BME280;25875;48.202;16.334;2024-02-26T10:03:50;97789.44;;;11.26;48.92
40155;BME280;25875;48.202;16.334;2024-02-26T10:06:19;97786.88;;;11.36;48.60
40155;BME280;25875;48.202;16.334;2024-02-26T10:08:47;97686.34;;;10.80;48.91
40155;BME280;25875;48.202;16.334;2024-02-26T10:11:15;97796.31;;;11.29;47.87
40155;BME280;25875;48.202;16.334;2024-02-26T10:13:42;97792.28;;;11.34;47.84
40155;BME280;25875;48.202;16.334;2024-02-26T10:16:09;97655.38;;;10.48;47.24
40155;BME280;25875;48.202;16.334;2024-02-26T10:18:45;97778.34;;;11.53;46.74
40155;BME280;25875;48.202;16.334;2024-02-26T10:21:12;97653.22;;;10.85;47.56
40155;BME280;25875;48.202;16.334;2024-02-26T10:23:40;97792.13;;;11.68;47.65
40155;BME280;25875;48.202;16.334;2024-02-26T10:26:08;97711.09;;;11.22;47.47
40155;BME280;25875;48.202;16.334;2024-02-26T10:28:36;97790.19;;;11.91;47.56
40155;BME280;25875;48.202;16.334;2024-02-26T10:31:03;97774.06;;;11.62;47.39
40155;BME280;25875;48.202;16.334;2024-02-26T10:33:32;97792.13;;;11.68;47.63
40155;BME280;25875;48.202;16.334;2024-02-26T10:35:59;97780.47;;;11.80;47.45
40155;BME280;25875;48.202;16.334;2024-02-26T10:38:26;97778.00;;;11.88;47.30
40155;BME280;25875;48.202;16.334;2024-02-26T10:40:54;97771.56;;;12.02;47.33
40155;BME280;25875;48.202;16.334;2024-02-26T10:43:20;97785.53;;;12.04;45.87
40155;BME280;25875;48.202;16.334;2024-02-26T10:45:47;97782.88;;;12.25;46.22
40155;BME280;25875;48.202;16.334;2024-02-26T10:48:14;97789.53;;;11.98;46.07
40155;BME280;25875;48.202;16.334;2024-02-26T10:50:43;97791.13;;;12.01;46.00
40155;BME280;25875;48.202;16.334;2024-02-26T10:53:15;97778.47;;;11.93;46.21
40155;BME280;25875;48.202;16.334;2024-02-26T10:55:48;97784.63;;;11.94;46.27
40155;BME280;25875;48.202;16.334;2024-02-26T10:58:17;97780.53;;;11.89;46.62
40155;BME280;25875;48.202;16.334;2024-02-26T11:00:45;97785.31;;;11.96;45.93
40155;BME280;25875;48.202;16.334;2024-02-26T11:03:14;97780.84;;;11.96;45.82
40155;BME280;25875;48.202;16.334;2024-02-26T11:05:43;97781.78;;;12.06;46.59
40155;BME280;25875;48.202;16.334;2024-02-26T11:08:12;97790.72;;;12.05;46.58
40155;BME280;25875;48.202;16.334;2024-02-26T11:10:40;97769.78;;;12.12;46.44
40155;BME280;25875;48.202;16.334;2024-02-26T11:13:09;97765.19;;;12.14;46.12
40155;BME280;25875;48.202;16.334;2024-02-26T11:15:40;97796.28;;;12.23;46.30
40155;BME280;25875;48.202;16.334;2024-02-26T11:18:08;97782.94;;;12.13;46.15
40155;BME280;25875;48.202;16.334;2024-02-26T11:20:38;97763.84;;;12.19;46.46
40155;BME280;25875;48.202;16.334;2024-02-26T11:23:07;97760.09;;;12.22;45.63
40155;BME280;25875;48.202;16.334;2024-02-26T11:25:34;97758.00;;;12.26;45.34
40155;BME280;25875;48.202;16.334;2024-02-26T11:28:04;97763.34;;;12.35;45.06
40155;BME280;25875;48.202;16.334;2024-02-26T11:30:34;97755.38;;;12.35;45.19
40155;BME280;25875;48.202;16.334;2024-02-26T11:33:06;97709.63;;;12.22;44.33
40155;BME280;25875;48.202;16.334;2024-02-26T11:35:34;97755.00;;;12.49;43.62
40155;BME280;25875;48.202;16.334;2024-02-26T11:38:00;97744.06;;;12.43;42.74
40155;BME280;25875;48.202;16.334;2024-02-26T11:40:27;97742.28;;;12.53;42.58
40155;BME280;25875;48.202;16.334;2024-02-26T11:42:54;97737.91;;;12.42;42.04
40155;BME280;25875;48.202;16.334;2024-02-26T11:45:49;97743.81;;;12.46;42.65
40155;BME280;25875;48.202;16.334;2024-02-26T11:48:22;97744.34;;;12.40;41.21
40155;BME280;25875;48.202;16.334;2024-02-26T11:50:50;97671.69;;;11.89;40.68
40155;BME280;25875;48.202;16.334;2024-02-26T11:53:23;97733.53;;;12.22;40.87
40155;BME280;25875;48.202;16.334;2024-02-26T11:56:13;97746.53;;;12.25;40.38
40155;BME280;25875;48.202;16.334;2024-02-26T11:58:40;97706.31;;;12.09;40.74
40155;BME280;25875;48.202;16.334;2024-02-26T12:01:38;97417.97;;;10.26;40.93
40155;BME280;25875;48.202;16.334;2024-02-26T12:04:07;97742.72;;;12.18;41.13
40155;BME280;25875;48.202;16.334;2024-02-26T12:06:50;97741.09;;;12.06;40.81
40155;BME280;25875;48.202;16.334;2024-02-26T12:09:36;97405.50;;;9.97;41.29
40155;BME280;25875;48.202;16.334;2024-02-26T12:12:05;97735.53;;;12.09;41.33
40155;BME280;25875;48.202;16.334;2024-02-26T12:14:33;97673.25;;;11.62;41.15
40155;BME280;25875;48.202;16.334;2024-02-26T12:17:01;97727.69;;;12.07;40.99
40155;BME280;25875;48.202;16.334;2024-02-26T12:19:33;97683.56;;;11.85;41.21
40155;BME280;25875;48.202;16.334;2024-02-26T12:22:00;97735.66;;;12.07;41.10
40155;BME280;25875;48.202;16.334;2024-02-26T12:24:27;97725.13;;;12.17;41.27
40155;BME280;25875;48.202;16.334;2024-02-26T12:26:54;97721.41;;;12.08;41.08
40155;BME280;25875;48.202;16.334;2024-02-26T12:29:21;97717.16;;;12.17;40.84
40155;BME280;25875;48.202;16.334;2024-02-26T12:31:48;97715.78;;;12.23;40.70
40155;BME280;25875;48.202;16.334;2024-02-26T12:34:15;97741.88;;;12.17;40.70
40155;BME280;25875;48.202;16.334;2024-02-26T12:36:44;97699.06;;;12.11;41.05
40155;BME280;25875;48.202;16.334;2024-02-26T12:39:11;97713.88;;;12.13;41.21
40155;BME280;25875;48.202;16.334;2024-02-26T12:41:38;97711.91;;;12.06;41.35
40155;BME280;25875;48.202;16.334;2024-02-26T12:44:07;97704.06;;;12.04;41.18
40155;BME280;25875;48.202;16.334;2024-02-26T12:46:34;97708.97;;;12.09;41.28
40155;BME280;25875;48.202;16.334;2024-02-26T12:49:00;97740.00;;;12.08;41.43
40155;BME280;25875;48.202;16.334;2024-02-26T12:51:29;97711.91;;;12.06;41.25
40155;BME280;25875;48.202;16.334;2024-02-26T12:53:58;97707.47;;;12.16;41.49
40155;BME280;25875;48.202;16.334;2024-02-26T12:56:25;97740.69;;;12.31;41.08
40155;BME280;25875;48.202;16.334;2024-02-26T12:58:54;97723.91;;;12.31;41.15